Raymondville, TX (78580)

6:42 PM CDT on May 22, 2015 (GMT -0500)
Valley International | | Change Station
CLOSE
Current Station
Airport
Location: Harlingen,
Elevation: 36 ft
Nearby Weather Stations

Elev 36 ft 26.23 °N, 97.65 °W | Updated 50 minutes ago

Partly Cloudy
Partly Cloudy
88 °F
Feels Like 98 °F
N
17
Wind Variable Wind from SE

Today
High -- | Low -- °F
--% Chance of Precip.
Yesterday
High -- | Low -- °F
Precip. -- in
6:41 AM 8:14 PM
Waxing Crescent, 25% visible
Pressure 29.96 in
Visibility 10.0 miles
Clouds Few 3000 ft
Heat Index 98 °F
Dew Point 75 °F
Humidity 65%
Rainfall 0.00 in
Snow Depth Not available.
UV 3 out of 12
Pollen 6.00 out of 12
Air Quality Not available.
Flu Activity Sporadic
METAR KHRL 222252Z 13015KT 10SM FEW030 31/24 A2997 RMK AO2 SLP146 T03110239 PNO $

More Conditions Fewer Conditions

Pressure 29.96 in
Visibility 10.0 miles
Clouds Few 3000 ft
Heat Index 98 °F
Dew Point 75 °F
Humidity 65%
Rainfall 0.00 in
Snow Depth Not available.
UV 3 out of 12
Pollen 6.00 out of 12
Air Quality Not available.
Flu Activity Sporadic
METAR KHRL 222252Z 13015KT 10SM FEW030 31/24 A2997 RMK AO2 SLP146 T03110239 PNO $

More Conditions Fewer Conditions

10-Day Weather Forecast

Almanac

Astronomy

May. 22, 2015 Rise Set
Actual Time
Civil Twilight
Nautical Twilight
Astronomical Twilight
Moon
Length of Visible Light
Length of Day
Tomorrow will be .
, % of the Moon is Illuminated

Today's Extremes

State Highs State Lows

Community

WunderPhotos

Upload Photos

1,823,335 photos uploaded!

WunderBlogs® & News

Nearby

Air Quality

  Air Quality AQ Index Pollutant
Not available.

Snow Depth

Station Depth Elevation

Earthquake Activity

City Distance Mag. Time & Date
Minimum magnitude displayed is 2.5.

Coastal Water Temperatures

Place Temperature

Stations

Nearby Weather Stations

Station Location Temp. Windchill Dew Point Humidity Wind Precip. Elev Updated Type